createdAt,value
2018-07-15T00:00:23.034Z,3.80
2018-07-15T00:01:23.033Z,3.70
2018-07-15T00:02:23.032Z,3.90
2018-07-15T00:03:23.033Z,3.90
2018-07-15T00:04:23.033Z,3.60
2018-07-15T00:05:23.033Z,3.80
2018-07-15T00:06:23.038Z,4.70
2018-07-15T00:07:23.031Z,4.00
2018-07-15T00:08:23.029Z,3.70
2018-07-15T00:09:23.030Z,4.10
2018-07-15T00:10:23.029Z,4.00
2018-07-15T00:11:23.029Z,6.30
2018-07-15T00:12:23.030Z,4.00
2018-07-15T00:13:23.028Z,4.30
2018-07-15T00:14:23.027Z,4.30
2018-07-15T00:15:23.029Z,4.30
2018-07-15T00:16:23.025Z,3.90
2018-07-15T00:17:23.029Z,4.00
2018-07-15T00:18:23.024Z,4.40
2018-07-15T00:19:23.025Z,4.40
2018-07-15T00:20:23.022Z,3.90
2018-07-15T00:21:23.023Z,4.50
2018-07-15T00:22:23.024Z,4.20
2018-07-15T00:23:23.023Z,4.10
2018-07-15T00:24:23.024Z,3.90
2018-07-15T00:25:23.022Z,4.30
2018-07-15T00:26:23.022Z,3.80
2018-07-15T00:27:23.021Z,4.30
2018-07-15T00:28:23.020Z,4.40
2018-07-15T00:29:23.019Z,4.20
2018-07-15T00:30:23.016Z,4.10
2018-07-15T00:31:23.019Z,4.20
2018-07-15T00:32:23.019Z,5.00
2018-07-15T00:33:23.017Z,4.40
2018-07-15T00:34:23.016Z,4.40
2018-07-15T00:35:23.014Z,4.30
2018-07-15T00:36:23.020Z,4.40
2018-07-15T00:37:23.014Z,4.30
2018-07-15T00:38:23.015Z,4.40
2018-07-15T00:39:23.013Z,4.20
2018-07-15T00:40:23.012Z,4.50
2018-07-15T00:41:23.012Z,4.20
2018-07-15T00:42:23.009Z,4.40
2018-07-15T00:43:23.011Z,4.10
2018-07-15T00:44:23.009Z,4.30
2018-07-15T00:45:23.007Z,4.30
2018-07-15T00:46:23.007Z,4.30
2018-07-15T00:47:23.007Z,4.20
2018-07-15T00:48:23.008Z,4.40
2018-07-15T00:49:23.007Z,4.20
2018-07-15T00:50:23.004Z,4.30
2018-07-15T00:51:23.005Z,4.30
2018-07-15T00:52:23.004Z,4.00
2018-07-15T00:53:23.004Z,4.40
2018-07-15T00:54:23.002Z,3.90
2018-07-15T00:55:23.055Z,4.60
2018-07-15T00:56:23.001Z,4.10
2018-07-15T00:57:23.001Z,3.70
2018-07-15T00:58:23.002Z,3.80
2018-07-15T00:59:22.998Z,4.10
2018-07-15T01:00:22.998Z,3.80
2018-07-15T01:01:22.997Z,3.80
2018-07-15T01:02:22.997Z,3.90
2018-07-15T01:03:22.995Z,4.00
2018-07-15T01:04:22.994Z,3.60
2018-07-15T01:05:22.995Z,3.90
2018-07-15T01:06:22.993Z,4.00
2018-07-15T01:07:22.992Z,3.90
2018-07-15T01:08:22.989Z,4.10
2018-07-15T01:09:22.994Z,4.20
2018-07-15T01:10:22.989Z,4.10
2018-07-15T01:11:22.988Z,3.90
2018-07-15T01:12:22.990Z,3.90
2018-07-15T01:13:22.988Z,4.10
2018-07-15T01:14:22.986Z,7.50
2018-07-15T01:15:22.985Z,4.00
2018-07-15T01:16:22.983Z,3.90
2018-07-15T01:17:22.984Z,3.80
2018-07-15T01:18:22.983Z,4.30
2018-07-15T01:19:22.984Z,4.10
2018-07-15T01:20:22.991Z,4.00
2018-07-15T01:21:22.981Z,4.10
2018-07-15T01:22:22.979Z,4.30
2018-07-15T01:23:22.979Z,4.30
2018-07-15T01:24:22.977Z,4.00
2018-07-15T01:25:22.978Z,4.00
2018-07-15T01:26:22.975Z,3.80
2018-07-15T01:27:22.978Z,3.50
2018-07-15T01:28:22.975Z,3.80
2018-07-15T01:29:22.974Z,4.00
2018-07-15T01:30:22.971Z,3.80
2018-07-15T01:31:22.971Z,3.60
2018-07-15T01:32:22.980Z,3.90
2018-07-15T01:33:22.969Z,4.10
2018-07-15T01:34:22.970Z,4.30
2018-07-15T01:35:22.966Z,4.50
2018-07-15T01:36:22.967Z,4.30
2018-07-15T01:37:22.965Z,4.50
2018-07-15T01:38:22.965Z,4.50
2018-07-15T01:39:22.967Z,4.40
2018-07-15T01:40:22.964Z,4.10
2018-07-15T01:41:22.964Z,4.40
2018-07-15T01:42:22.961Z,4.40
2018-07-15T01:43:22.960Z,4.70
2018-07-15T01:44:22.957Z,4.40
2018-07-15T01:45:22.958Z,4.70
2018-07-15T01:46:22.956Z,4.60
2018-07-15T01:47:22.955Z,4.30
2018-07-15T01:48:22.955Z,6.00
2018-07-15T01:49:22.954Z,4.30
2018-07-15T01:50:22.952Z,4.40
2018-07-15T01:51:22.950Z,4.10
2018-07-15T01:52:22.951Z,4.30
2018-07-15T01:53:22.966Z,4.20
2018-07-15T01:54:22.947Z,4.50
2018-07-15T01:55:22.947Z,4.20
2018-07-15T01:56:22.947Z,4.50
2018-07-15T01:57:22.944Z,4.40
2018-07-15T01:58:22.942Z,4.80
2018-07-15T01:59:22.942Z,4.50
2018-07-15T02:00:22.945Z,4.50
2018-07-15T02:01:22.941Z,4.40
2018-07-15T02:02:22.939Z,4.60
2018-07-15T02:03:22.938Z,4.20
2018-07-15T02:04:22.938Z,4.00
2018-07-15T02:05:22.936Z,4.30
2018-07-15T02:06:22.936Z,4.20
2018-07-15T02:07:22.934Z,4.00
2018-07-15T02:08:22.933Z,4.00
2018-07-15T02:09:22.932Z,4.20
2018-07-15T02:10:22.929Z,4.20
2018-07-15T02:11:22.929Z,4.10
2018-07-15T02:12:22.931Z,4.00
2018-07-15T02:13:22.931Z,3.70
2018-07-15T02:14:22.925Z,4.40
2018-07-15T02:15:22.925Z,4.10
2018-07-15T02:16:22.940Z,4.30
2018-07-15T02:17:22.924Z,4.10
2018-07-15T02:18:22.922Z,4.10
2018-07-15T02:19:22.920Z,4.20
2018-07-15T02:20:22.919Z,4.50
2018-07-15T02:21:22.917Z,4.90
2018-07-15T02:22:22.916Z,4.60
2018-07-15T02:23:22.919Z,4.50
2018-07-15T02:24:22.914Z,5.10
2018-07-15T02:25:22.911Z,5.10
2018-07-15T02:26:22.911Z,5.40
2018-07-15T02:27:22.911Z,5.00
2018-07-15T02:28:22.910Z,5.10
2018-07-15T02:29:22.908Z,4.90
2018-07-15T02:30:22.917Z,5.00
2018-07-15T02:31:22.906Z,4.90
2018-07-15T02:32:22.906Z,5.20
2018-07-15T02:33:22.904Z,4.90
2018-07-15T02:34:22.901Z,4.90
2018-07-15T02:35:22.900Z,4.50
2018-07-15T02:36:22.899Z,5.00
2018-07-15T02:37:22.901Z,5.20
2018-07-15T02:38:22.896Z,4.90
2018-07-15T02:39:22.892Z,4.90
2018-07-15T02:40:22.894Z,5.00
2018-07-15T02:41:22.893Z,4.50
2018-07-15T02:42:22.891Z,4.80
2018-07-15T02:43:22.890Z,4.80
2018-07-15T02:44:22.894Z,5.00
2018-07-15T02:45:22.890Z,4.50
2018-07-15T02:46:22.882Z,4.50
2018-07-15T02:47:22.882Z,4.40
2018-07-15T02:48:22.886Z,4.90
2018-07-15T02:49:22.883Z,5.60
2018-07-15T02:50:22.879Z,5.50
2018-07-15T02:51:22.879Z,5.60
2018-07-15T02:52:22.878Z,5.60
2018-07-15T02:53:22.877Z,5.00
2018-07-15T02:54:22.878Z,5.70
2018-07-15T02:55:22.874Z,6.00
2018-07-15T02:56:22.874Z,5.40
2018-07-15T02:57:22.871Z,7.10
2018-07-15T02:58:22.870Z,5.80
2018-07-15T02:59:22.880Z,5.50
2018-07-15T03:00:22.870Z,5.50
2018-07-15T03:01:22.866Z,6.20
2018-07-15T03:02:22.865Z,5.10
2018-07-15T03:03:22.863Z,5.60
2018-07-15T03:04:22.862Z,5.70
2018-07-15T03:05:22.864Z,5.30
2018-07-15T03:06:22.859Z,5.60
2018-07-15T03:07:22.858Z,5.50
2018-07-15T03:08:22.857Z,5.60
2018-07-15T03:09:22.855Z,6.10
2018-07-15T03:10:22.858Z,5.60
2018-07-15T03:11:22.857Z,5.90
2018-07-15T03:12:22.850Z,6.00
2018-07-15T03:13:22.851Z,6.60
2018-07-15T03:14:22.848Z,6.50
2018-07-15T03:15:22.847Z,6.60
2018-07-15T03:16:22.846Z,6.20
2018-07-15T03:17:22.861Z,6.10
2018-07-15T03:18:22.841Z,5.90
2018-07-15T03:19:22.841Z,5.80
2018-07-15T03:20:22.838Z,5.90
2018-07-15T03:21:22.841Z,6.00
2018-07-15T03:22:22.897Z,6.10
2018-07-15T03:23:22.835Z,5.90
2018-07-15T03:24:22.834Z,6.50
2018-07-15T03:25:22.834Z,6.60
2018-07-15T03:26:22.831Z,5.70
2018-07-15T03:27:22.834Z,6.20
2018-07-15T03:28:22.829Z,5.60
2018-07-15T03:29:22.828Z,6.00
2018-07-15T03:30:22.825Z,6.00
2018-07-15T03:31:22.827Z,6.10
2018-07-15T03:32:22.824Z,5.40
2018-07-15T03:33:22.822Z,5.90
2018-07-15T03:34:22.819Z,5.80
2018-07-15T03:35:22.820Z,5.80
2018-07-15T03:36:22.818Z,6.10
2018-07-15T03:37:22.817Z,5.50
2018-07-15T03:38:22.822Z,5.90
2018-07-15T03:39:22.813Z,5.40
2018-07-15T03:40:22.822Z,5.20
2018-07-15T03:41:22.812Z,5.30
2018-07-15T03:42:22.809Z,5.30
2018-07-15T03:43:22.807Z,4.60
2018-07-15T03:44:22.805Z,4.50
2018-07-15T03:45:22.805Z,4.80
2018-07-15T03:46:22.802Z,4.50
2018-07-15T03:47:22.802Z,4.70
2018-07-15T03:48:22.803Z,4.80
2018-07-15T03:49:22.803Z,4.20
2018-07-15T03:50:22.799Z,4.50
2018-07-15T03:51:22.801Z,4.50
2018-07-15T03:52:22.798Z,4.40
2018-07-15T03:53:22.796Z,4.70
2018-07-15T03:54:22.797Z,4.20
2018-07-15T03:55:22.802Z,4.60
2018-07-15T03:56:22.794Z,4.40
2018-07-15T03:57:22.795Z,4.50
2018-07-15T03:58:22.797Z,4.40
2018-07-15T03:59:22.794Z,4.60
2018-07-15T04:00:22.790Z,4.60
2018-07-15T04:01:22.786Z,4.20
2018-07-15T04:02:22.789Z,4.50
2018-07-15T04:03:22.789Z,4.80
2018-07-15T04:04:22.788Z,4.60
2018-07-15T04:05:22.789Z,4.30
2018-07-15T04:06:22.789Z,4.50
2018-07-15T04:07:22.787Z,4.60
2018-07-15T04:08:22.845Z,4.10
2018-07-15T04:09:22.784Z,4.30
2018-07-15T04:10:22.786Z,4.20
2018-07-15T04:11:22.792Z,4.30
2018-07-15T04:12:22.784Z,4.10
2018-07-15T04:13:22.785Z,4.00
2018-07-15T04:14:22.788Z,4.10
2018-07-15T04:15:22.789Z,4.70
2018-07-15T04:16:22.783Z,4.50
2018-07-15T04:17:22.782Z,4.60
2018-07-15T04:18:22.783Z,4.60
2018-07-15T04:19:22.783Z,4.70
2018-07-15T04:20:22.782Z,4.80
2018-07-15T04:21:22.780Z,4.30
2018-07-15T04:22:22.811Z,4.30
2018-07-15T04:23:22.779Z,4.30
2018-07-15T04:24:22.779Z,4.70
2018-07-15T04:25:22.778Z,4.60
2018-07-15T04:26:22.777Z,4.30
2018-07-15T04:27:22.778Z,4.70
2018-07-15T04:28:22.853Z,4.80
2018-07-15T04:29:22.781Z,4.70
2018-07-15T04:30:22.774Z,4.60
2018-07-15T04:31:22.769Z,4.70
2018-07-15T04:32:22.771Z,4.40
2018-07-15T04:33:22.774Z,4.50
2018-07-15T04:34:22.773Z,4.50
2018-07-15T04:35:22.773Z,4.30
2018-07-15T04:36:22.773Z,4.30
2018-07-15T04:37:22.770Z,4.50
2018-07-15T04:38:22.769Z,4.40
2018-07-15T04:39:22.766Z,5.00
2018-07-15T04:40:22.772Z,4.40
2018-07-15T04:41:22.768Z,4.30
2018-07-15T04:42:22.763Z,4.30
2018-07-15T04:43:22.764Z,4.80
2018-07-15T04:44:22.769Z,4.40
2018-07-15T04:45:22.764Z,4.30
2018-07-15T04:46:22.763Z,4.10
2018-07-15T04:47:22.761Z,4.40
2018-07-15T04:48:22.761Z,3.90
2018-07-15T04:49:22.759Z,3.90
2018-07-15T04:50:22.761Z,4.00
2018-07-15T04:51:22.753Z,4.00
2018-07-15T04:52:22.762Z,3.90
2018-07-15T04:53:22.756Z,4.20
2018-07-15T04:54:22.755Z,4.10
2018-07-15T04:55:22.755Z,3.80
2018-07-15T04:56:22.754Z,4.10
2018-07-15T04:57:22.753Z,3.90
2018-07-15T04:58:22.752Z,3.90
2018-07-15T04:59:22.751Z,3.80
2018-07-15T05:00:22.751Z,4.00
2018-07-15T05:01:22.750Z,4.10
2018-07-15T05:02:22.751Z,3.80
2018-07-15T05:03:22.747Z,3.60
2018-07-15T05:04:22.747Z,3.80
2018-07-15T05:05:22.748Z,4.00
2018-07-15T05:06:22.748Z,4.00
2018-07-15T05:07:22.747Z,3.40
2018-07-15T05:08:22.742Z,4.80
2018-07-15T05:09:22.747Z,4.30
2018-07-15T05:10:22.745Z,3.50
2018-07-15T05:11:22.840Z,3.60
2018-07-15T05:12:22.769Z,3.50
2018-07-15T05:13:22.749Z,3.90
2018-07-15T05:14:22.741Z,3.40
2018-07-15T05:15:22.742Z,4.10
2018-07-15T05:16:22.739Z,2.90
2018-07-15T05:17:22.741Z,3.50
2018-07-15T05:18:22.752Z,3.50
2018-07-15T05:19:22.741Z,3.00
2018-07-15T05:20:22.739Z,3.30
2018-07-15T05:21:22.741Z,3.40
2018-07-15T05:22:22.743Z,3.50
2018-07-15T05:23:22.737Z,3.10
2018-07-15T05:24:22.740Z,3.30
2018-07-15T05:25:22.740Z,3.50
2018-07-15T05:26:22.738Z,3.00
2018-07-15T05:27:22.741Z,3.30
2018-07-15T05:28:22.739Z,3.20
2018-07-15T05:29:22.739Z,3.60
2018-07-15T05:30:22.740Z,2.80
2018-07-15T05:31:22.740Z,2.90
2018-07-15T05:32:22.740Z,3.00
2018-07-15T05:33:22.740Z,3.00
2018-07-15T05:34:22.737Z,3.20
2018-07-15T05:35:22.740Z,2.60
2018-07-15T05:36:22.743Z,3.40
2018-07-15T05:37:22.740Z,2.80
2018-07-15T05:38:22.744Z,2.60
2018-07-15T05:39:22.741Z,2.70
2018-07-15T05:40:22.743Z,2.90
2018-07-15T05:41:22.742Z,3.30
2018-07-15T05:42:22.744Z,2.80
2018-07-15T05:43:22.745Z,2.50
2018-07-15T05:44:22.816Z,2.30
2018-07-15T05:45:22.745Z,2.40
2018-07-15T05:46:22.747Z,2.30
2018-07-15T05:47:22.748Z,2.20
2018-07-15T05:48:22.748Z,2.30
2018-07-15T05:49:22.750Z,2.30
2018-07-15T05:50:22.750Z,2.60
2018-07-15T05:51:22.750Z,2.50
2018-07-15T05:52:22.751Z,2.20
2018-07-15T05:53:22.754Z,2.40
2018-07-15T05:54:22.759Z,2.20
2018-07-15T05:55:22.757Z,2.80
2018-07-15T05:56:22.755Z,2.50
2018-07-15T05:57:22.760Z,2.50
2018-07-15T05:58:22.760Z,2.40
2018-07-15T05:59:22.763Z,3.00
2018-07-15T06:00:22.763Z,2.40
2018-07-15T06:01:22.766Z,2.40
2018-07-15T06:02:22.769Z,2.20
2018-07-15T06:03:22.777Z,2.50
2018-07-15T06:04:22.770Z,2.30
2018-07-15T06:05:22.773Z,2.50
2018-07-15T06:06:22.772Z,2.60
2018-07-15T06:07:22.774Z,2.10
2018-07-15T06:08:22.779Z,2.30
2018-07-15T06:09:22.781Z,2.50
2018-07-15T06:10:22.781Z,2.20
2018-07-15T06:11:22.782Z,2.10
2018-07-15T06:12:22.785Z,2.30
2018-07-15T06:13:22.785Z,2.80
2018-07-15T06:14:22.789Z,2.50
2018-07-15T06:15:22.790Z,2.70
2018-07-15T06:16:22.794Z,2.40
2018-07-15T06:17:22.798Z,3.10
2018-07-15T06:18:22.796Z,2.30
2018-07-15T06:19:22.800Z,2.60
2018-07-15T06:20:22.802Z,2.50
2018-07-15T06:21:22.811Z,2.40
2018-07-15T06:22:22.806Z,2.30
2018-07-15T06:23:22.809Z,2.20
2018-07-15T06:24:22.811Z,2.40
2018-07-15T06:25:22.815Z,2.20
2018-07-15T06:26:22.817Z,2.30
2018-07-15T06:27:22.819Z,1.80
2018-07-15T06:28:22.825Z,2.00
2018-07-15T06:29:22.824Z,2.10
2018-07-15T06:30:22.830Z,2.00
2018-07-15T06:31:22.829Z,3.20
2018-07-15T06:32:22.835Z,2.10
2018-07-15T06:33:22.839Z,1.90
2018-07-15T06:34:22.838Z,2.00
2018-07-15T06:35:22.843Z,1.80
2018-07-15T06:36:22.844Z,2.30
2018-07-15T06:37:22.851Z,1.80
2018-07-15T06:38:22.849Z,1.70
2018-07-15T06:39:22.853Z,1.80
2018-07-15T06:40:22.856Z,1.90
2018-07-15T06:41:22.859Z,2.00
2018-07-15T06:42:22.860Z,1.90
2018-07-15T06:43:22.866Z,2.00
2018-07-15T06:44:22.869Z,2.10
2018-07-15T06:45:22.877Z,2.00
2018-07-15T06:46:22.876Z,1.80
2018-07-15T06:47:22.878Z,1.50
2018-07-15T06:48:22.883Z,1.70
2018-07-15T06:49:22.986Z,2.00
2018-07-15T06:50:22.886Z,1.70
2018-07-15T06:51:22.889Z,1.70
2018-07-15T06:52:22.902Z,2.60
2018-07-15T06:53:22.900Z,1.60
2018-07-15T06:54:22.901Z,1.60
2018-07-15T06:55:22.905Z,1.60
2018-07-15T06:56:22.908Z,1.90
2018-07-15T06:57:22.908Z,1.80
2018-07-15T06:58:22.915Z,1.90
2018-07-15T06:59:22.920Z,1.60
2018-07-15T07:00:22.923Z,1.60
2018-07-15T07:01:22.961Z,1.40
2018-07-15T07:02:22.930Z,1.80
2018-07-15T07:03:22.933Z,1.60
2018-07-15T07:04:22.946Z,2.20
2018-07-15T07:05:22.943Z,1.70
2018-07-15T07:06:22.942Z,1.40
2018-07-15T07:07:23.041Z,1.60
2018-07-15T07:08:22.953Z,1.60
2018-07-15T07:09:22.961Z,1.60
2018-07-15T07:10:22.964Z,1.60
2018-07-15T07:11:22.966Z,1.60
2018-07-15T07:12:22.971Z,1.60
2018-07-15T07:13:22.976Z,1.50
2018-07-15T07:14:22.983Z,1.50
2018-07-15T07:15:22.990Z,2.30
2018-07-15T07:16:22.996Z,1.60
2018-07-15T07:17:23.000Z,1.50
2018-07-15T07:18:23.005Z,1.50
2018-07-15T07:19:23.008Z,1.40
2018-07-15T07:20:23.014Z,1.40
2018-07-15T07:21:23.020Z,2.50
2018-07-15T07:22:23.022Z,1.30
2018-07-15T07:23:23.033Z,1.40
2018-07-15T07:24:23.034Z,1.40
2018-07-15T07:25:23.040Z,1.30
2018-07-15T07:26:23.046Z,1.40
2018-07-15T07:27:23.055Z,1.20
2018-07-15T07:28:23.058Z,1.20
2018-07-15T07:29:23.064Z,1.20
2018-07-15T07:30:23.070Z,1.10
2018-07-15T07:31:23.076Z,1.20
2018-07-15T07:32:23.083Z,1.20
2018-07-15T07:33:23.089Z,1.30
2018-07-15T07:34:23.092Z,1.50
2018-07-15T07:35:23.109Z,1.10
2018-07-15T07:36:23.105Z,1.30
2018-07-15T07:37:23.112Z,1.80
2018-07-15T07:38:23.116Z,1.50
2018-07-15T07:39:23.124Z,1.80
2018-07-15T07:40:23.129Z,1.30
2018-07-15T07:41:23.159Z,1.00
2018-07-15T07:42:23.142Z,2.20
2018-07-15T07:43:23.149Z,1.00
2018-07-15T07:44:23.158Z,1.20
2018-07-15T07:45:23.163Z,1.00
2018-07-15T07:46:23.163Z,1.10
2018-07-15T07:47:23.177Z,0.90
2018-07-15T07:48:23.183Z,1.40
2018-07-15T07:49:23.190Z,1.00
2018-07-15T07:50:23.196Z,0.80
2018-07-15T07:51:23.209Z,1.80
2018-07-15T07:52:23.214Z,1.60
2018-07-15T07:53:23.310Z,1.00
2018-07-15T07:54:23.224Z,1.20
2018-07-15T07:55:23.232Z,2.00
2018-07-15T07:56:23.242Z,1.50
2018-07-15T07:57:23.249Z,2.20
2018-07-15T07:58:23.255Z,0.90
2018-07-15T07:59:23.261Z,0.90
2018-07-15T08:00:23.268Z,1.00
2018-07-15T08:01:23.275Z,0.90
2018-07-15T08:02:23.282Z,1.00
2018-07-15T08:03:23.296Z,0.80
2018-07-15T08:04:23.299Z,1.30
2018-07-15T08:05:23.308Z,1.50
2018-07-15T08:06:23.318Z,1.00
2018-07-15T08:07:23.326Z,1.30
2018-07-15T08:08:23.334Z,1.10
2018-07-15T08:09:23.336Z,0.80
2018-07-15T08:10:23.343Z,0.90
2018-07-15T08:11:23.350Z,1.10
2018-07-15T08:12:23.357Z,1.70
2018-07-15T08:13:23.364Z,1.10
2018-07-15T08:14:23.371Z,1.10
2018-07-15T08:15:23.409Z,0.90
2018-07-15T08:16:23.388Z,0.90
2018-07-15T08:17:23.400Z,0.90
2018-07-15T08:18:23.405Z,0.90
2018-07-15T08:19:23.412Z,0.80
2018-07-15T08:20:23.419Z,1.00
2018-07-15T08:21:23.430Z,1.00
2018-07-15T08:22:23.438Z,0.90
2018-07-15T08:23:23.442Z,0.90
2018-07-15T08:24:23.455Z,0.90
2018-07-15T08:25:23.463Z,1.10
2018-07-15T08:26:23.471Z,1.00
2018-07-15T08:27:23.480Z,1.10
2018-07-15T08:28:23.594Z,1.00
2018-07-15T08:29:23.500Z,1.90
2018-07-15T08:30:23.506Z,1.30
2018-07-15T08:31:23.513Z,1.50
2018-07-15T08:32:23.523Z,1.00
2018-07-15T08:33:23.532Z,1.00
2018-07-15T08:34:23.544Z,1.20
2018-07-15T08:35:23.551Z,0.90
2018-07-15T08:36:23.560Z,0.90
2018-07-15T08:37:23.574Z,1.30
2018-07-15T08:38:23.581Z,1.20
2018-07-15T08:39:23.588Z,2.10
2018-07-15T08:40:23.594Z,1.30
2018-07-15T08:41:23.602Z,1.30
2018-07-15T08:42:23.611Z,2.60
2018-07-15T08:43:23.614Z,1.20
2018-07-15T08:44:23.623Z,1.20
2018-07-15T08:45:23.633Z,1.40
2018-07-15T08:46:23.641Z,1.50
2018-07-15T08:47:23.654Z,1.20
2018-07-15T08:48:23.651Z,1.10
2018-07-15T08:49:23.666Z,1.00
2018-07-15T08:50:23.673Z,1.30
2018-07-15T08:51:23.682Z,1.20
2018-07-15T08:52:23.695Z,1.30
2018-07-15T08:53:23.701Z,1.30
2018-07-15T08:54:23.707Z,1.10
2018-07-15T08:55:23.717Z,1.30
2018-07-15T08:56:23.729Z,1.30
2018-07-15T08:57:23.737Z,1.20
2018-07-15T08:58:23.756Z,1.20
2018-07-15T08:59:23.782Z,1.30
2018-07-15T09:00:23.758Z,1.70
2018-07-15T09:01:23.779Z,1.30
2018-07-15T09:02:23.777Z,1.20
2018-07-15T09:03:23.808Z,1.30
2018-07-15T09:04:23.793Z,1.40
2018-07-15T09:05:23.800Z,1.10
2018-07-15T09:06:23.809Z,2.00
2018-07-15T09:07:23.821Z,1.10
2018-07-15T09:08:23.830Z,1.20
2018-07-15T09:09:23.833Z,1.30
2018-07-15T09:10:23.837Z,1.50
2018-07-15T09:11:23.849Z,1.40
2018-07-15T09:12:23.863Z,1.60
2018-07-15T09:13:23.864Z,1.40
2018-07-15T09:14:23.872Z,1.60
2018-07-15T09:15:23.882Z,1.30
2018-07-15T09:16:23.888Z,1.80
2018-07-15T09:17:23.896Z,1.00
2018-07-15T09:18:23.915Z,1.40
2018-07-15T09:19:23.907Z,1.10
2018-07-15T09:20:23.914Z,2.30
2018-07-15T09:21:23.921Z,1.80
2018-07-15T09:22:23.926Z,1.60
2018-07-15T09:23:23.930Z,1.80
2018-07-15T09:24:23.942Z,1.40
2018-07-15T09:25:23.944Z,1.50
2018-07-15T09:26:23.952Z,1.40
2018-07-15T09:27:23.954Z,1.40
2018-07-15T09:28:23.960Z,1.30
2018-07-15T09:29:23.966Z,3.00
2018-07-15T09:30:23.970Z,1.40
2018-07-15T09:31:23.975Z,1.80
2018-07-15T09:32:23.979Z,1.90
2018-07-15T09:33:23.986Z,1.40
2018-07-15T09:34:23.988Z,1.50
2018-07-15T09:35:23.994Z,1.40
2018-07-15T09:36:24.004Z,1.20
2018-07-15T09:37:24.007Z,1.30
2018-07-15T09:38:24.010Z,1.40
2018-07-15T09:39:24.013Z,1.30
2018-07-15T09:40:24.019Z,1.70
2018-07-15T09:41:24.024Z,1.70
2018-07-15T09:42:24.030Z,1.30
2018-07-15T09:43:24.035Z,1.20
2018-07-15T09:44:24.039Z,1.50
2018-07-15T09:45:24.043Z,1.60
2018-07-15T09:46:24.043Z,1.40
2018-07-15T09:47:24.050Z,1.40
2018-07-15T09:48:24.055Z,1.60
2018-07-15T09:49:24.059Z,1.40
2018-07-15T09:50:24.065Z,1.40
2018-07-15T09:51:24.070Z,1.30
2018-07-15T09:52:24.073Z,1.50
2018-07-15T09:53:24.077Z,1.40
2018-07-15T09:54:24.080Z,1.40
2018-07-15T09:55:24.084Z,1.40
2018-07-15T09:56:24.091Z,1.20
2018-07-15T09:57:24.094Z,1.50
2018-07-15T09:58:24.222Z,1.70
2018-07-15T09:59:24.100Z,2.20
2018-07-15T10:00:24.104Z,1.30
2018-07-15T10:01:24.109Z,1.50
2018-07-15T10:02:24.111Z,1.50
2018-07-15T10:03:24.113Z,1.40
2018-07-15T10:04:24.119Z,1.50
2018-07-15T10:05:24.124Z,1.60
2018-07-15T10:06:24.126Z,1.40
2018-07-15T10:07:24.153Z,1.40
2018-07-15T10:08:24.138Z,1.60
2018-07-15T10:09:24.140Z,1.30
2018-07-15T10:10:24.192Z,1.80
2018-07-15T10:11:24.147Z,1.50
2018-07-15T10:12:24.150Z,1.50
2018-07-15T10:13:24.152Z,2.00
2018-07-15T10:14:24.162Z,1.50
2018-07-15T10:15:24.160Z,1.90
2018-07-15T10:16:24.167Z,1.60
2018-07-15T10:17:24.170Z,1.70
2018-07-15T10:18:24.178Z,1.90
2018-07-15T10:19:24.176Z,1.70
2018-07-15T10:20:24.180Z,1.50
2018-07-15T10:21:24.185Z,1.50
2018-07-15T10:22:24.186Z,1.20
2018-07-15T10:23:24.191Z,1.30
2018-07-15T10:24:24.191Z,1.60
2018-07-15T10:25:24.204Z,1.90
2018-07-15T10:26:24.201Z,2.60
2018-07-15T10:27:24.208Z,2.60
2018-07-15T10:28:24.208Z,3.50
2018-07-15T10:29:24.213Z,1.70
2018-07-15T10:30:24.216Z,2.20
2018-07-15T10:31:24.218Z,1.70
2018-07-15T10:32:24.224Z,1.40
2018-07-15T10:33:24.228Z,1.70
2018-07-15T10:34:24.230Z,2.50
2018-07-15T10:35:24.241Z,1.50
2018-07-15T10:36:24.239Z,1.40
2018-07-15T10:37:24.244Z,1.40
2018-07-15T10:38:24.248Z,1.40
2018-07-15T10:39:24.250Z,1.60
2018-07-15T10:40:24.255Z,2.70
2018-07-15T10:41:24.259Z,1.50
2018-07-15T10:42:24.270Z,2.00
2018-07-15T10:43:24.267Z,1.50
2018-07-15T10:44:24.273Z,1.50
2018-07-15T10:45:24.276Z,1.50
2018-07-15T10:46:24.279Z,1.90
2018-07-15T10:47:24.285Z,1.40
2018-07-15T10:48:24.285Z,1.50
2018-07-15T10:49:24.290Z,1.50
2018-07-15T10:50:24.295Z,1.60
2018-07-15T10:51:24.298Z,2.00
2018-07-15T10:52:24.306Z,3.20
2018-07-15T10:53:24.307Z,1.70
2018-07-15T10:54:24.311Z,2.80
2018-07-15T10:55:24.314Z,1.60
2018-07-15T10:56:24.315Z,1.80
2018-07-15T10:57:24.322Z,1.60
2018-07-15T10:58:24.324Z,1.60
2018-07-15T10:59:24.333Z,1.40
2018-07-15T11:00:24.336Z,1.50
2018-07-15T11:01:24.336Z,4.90
2018-07-15T11:02:24.338Z,2.60
2018-07-15T11:03:24.343Z,3.30
2018-07-15T11:04:24.347Z,1.60
2018-07-15T11:05:24.354Z,1.80
2018-07-15T11:06:24.401Z,1.80
2018-07-15T11:07:24.357Z,2.00
2018-07-15T11:08:24.363Z,1.60
2018-07-15T11:09:24.365Z,1.70
2018-07-15T11:10:24.366Z,1.60
2018-07-15T11:11:24.371Z,1.50
2018-07-15T11:12:24.376Z,1.40
2018-07-15T11:13:24.420Z,1.90
2018-07-15T11:14:24.390Z,1.50
2018-07-15T11:15:24.386Z,1.80
2018-07-15T11:16:24.442Z,2.70
2018-07-15T11:17:24.401Z,2.40
2018-07-15T11:18:24.398Z,1.70
2018-07-15T11:19:24.401Z,2.10
2018-07-15T11:20:24.407Z,1.70
2018-07-15T11:21:24.409Z,2.00
2018-07-15T11:22:24.419Z,2.30
2018-07-15T11:23:24.418Z,1.50
2018-07-15T11:24:24.420Z,1.60
2018-07-15T11:25:24.426Z,3.10
2018-07-15T11:26:24.429Z,1.70
2018-07-15T11:27:24.429Z,1.70
2018-07-15T11:28:24.436Z,1.70
2018-07-15T11:29:24.439Z,1.80
2018-07-15T11:30:24.444Z,1.80
2018-07-15T11:31:24.543Z,1.60
2018-07-15T11:32:24.452Z,1.80
2018-07-15T11:33:24.459Z,1.90
2018-07-15T11:34:24.460Z,1.60
2018-07-15T11:35:24.465Z,1.90
2018-07-15T11:36:24.470Z,1.70
2018-07-15T11:37:24.473Z,1.70
2018-07-15T11:38:24.476Z,2.30
2018-07-15T11:39:24.480Z,1.70
2018-07-15T11:40:24.486Z,2.10
2018-07-15T11:41:24.488Z,2.10
2018-07-15T11:42:24.500Z,3.40
2018-07-15T11:43:24.496Z,1.70
2018-07-15T11:44:24.499Z,1.60
2018-07-15T11:45:24.505Z,1.70
2018-07-15T11:46:24.508Z,1.60
2018-07-15T11:47:24.511Z,1.80
2018-07-15T11:48:24.516Z,2.20
2018-07-15T11:49:24.520Z,1.70
2018-07-15T11:50:24.526Z,3.00
2018-07-15T11:51:24.525Z,1.80
2018-07-15T11:52:24.531Z,1.60
2018-07-15T11:53:24.540Z,1.80
2018-07-15T11:54:24.614Z,1.80
2018-07-15T11:55:24.542Z,1.80
2018-07-15T11:56:24.547Z,3.50
2018-07-15T11:57:24.551Z,2.30
2018-07-15T11:58:24.555Z,1.70
2018-07-15T11:59:24.560Z,1.80
2018-07-15T12:00:24.563Z,2.10
2018-07-15T12:01:24.569Z,1.80
2018-07-15T12:02:24.572Z,1.60
2018-07-15T12:03:24.573Z,2.10
2018-07-15T12:04:24.581Z,1.70
2018-07-15T12:05:24.584Z,1.80
2018-07-15T12:06:24.585Z,2.80
2018-07-15T12:07:24.590Z,1.80
2018-07-15T12:08:24.594Z,1.80
2018-07-15T12:09:24.601Z,2.90
2018-07-15T12:10:24.602Z,1.70
2018-07-15T12:11:24.608Z,1.60
2018-07-15T12:12:24.615Z,1.80
2018-07-15T12:13:24.616Z,2.10
2018-07-15T12:14:24.616Z,1.70
2018-07-15T12:15:24.623Z,1.70
2018-07-15T12:16:24.628Z,3.20
2018-07-15T12:17:24.633Z,1.90
2018-07-15T12:18:24.636Z,1.60
2018-07-15T12:19:24.638Z,3.60
2018-07-15T12:20:24.649Z,3.60
2018-07-15T12:21:24.647Z,2.00
2018-07-15T12:22:24.652Z,1.80
2018-07-15T12:23:24.656Z,2.70
2018-07-15T12:24:24.661Z,1.70
2018-07-15T12:25:24.665Z,1.60
2018-07-15T12:26:24.670Z,2.10
2018-07-15T12:27:24.675Z,2.00
2018-07-15T12:28:24.680Z,1.70
2018-07-15T12:29:24.686Z,1.60
2018-07-15T12:30:24.686Z,1.60
2018-07-15T12:31:24.694Z,1.80
2018-07-15T12:32:24.701Z,1.90
2018-07-15T12:33:24.717Z,1.80
2018-07-15T12:34:24.705Z,2.30
2018-07-15T12:35:24.712Z,2.00
2018-07-15T12:36:24.715Z,1.70
2018-07-15T12:37:24.719Z,2.00
2018-07-15T12:38:24.723Z,1.70
2018-07-15T12:39:24.727Z,2.40
2018-07-15T12:40:24.732Z,2.40
2018-07-15T12:41:24.737Z,1.80
2018-07-15T12:42:24.741Z,2.10
2018-07-15T12:43:24.782Z,1.70
2018-07-15T12:44:24.752Z,1.60
2018-07-15T12:45:24.756Z,3.20
2018-07-15T12:46:24.759Z,2.40
2018-07-15T12:47:24.763Z,2.30
2018-07-15T12:48:24.767Z,1.70
2018-07-15T12:49:24.772Z,1.60
2018-07-15T12:50:24.777Z,2.40
2018-07-15T12:51:24.780Z,2.10
2018-07-15T12:52:24.783Z,1.60
2018-07-15T12:53:24.791Z,1.70
2018-07-15T12:54:24.794Z,1.70
2018-07-15T12:55:24.797Z,1.70
2018-07-15T12:56:24.799Z,1.80
2018-07-15T12:57:24.806Z,2.10
2018-07-15T12:58:24.808Z,1.90
2018-07-15T12:59:24.815Z,2.00
2018-07-15T13:00:24.818Z,2.00
2018-07-15T13:01:24.867Z,1.70
2018-07-15T13:02:24.820Z,1.70
2018-07-15T13:03:24.828Z,1.80
2018-07-15T13:04:24.832Z,1.60
2018-07-15T13:05:24.852Z,2.90
2018-07-15T13:06:24.837Z,1.80
2018-07-15T13:07:24.844Z,1.70
2018-07-15T13:08:24.848Z,1.90
2018-07-15T13:09:24.854Z,1.70
2018-07-15T13:10:24.854Z,1.90
2018-07-15T13:11:24.859Z,1.80
2018-07-15T13:12:24.865Z,2.90
2018-07-15T13:13:24.935Z,1.80
2018-07-15T13:14:24.871Z,1.80
2018-07-15T13:15:24.875Z,1.90
2018-07-15T13:16:24.962Z,1.90
2018-07-15T13:17:24.885Z,1.70
2018-07-15T13:18:24.885Z,2.70